createdAt,value
2024-01-21T00:00:23.922Z,5.70
2024-01-21T00:02:51.260Z,5.25
2024-01-21T00:05:18.553Z,5.70
2024-01-21T00:07:45.823Z,5.18
2024-01-21T00:10:13.065Z,4.72
2024-01-21T00:12:40.535Z,5.43
2024-01-21T00:15:08.586Z,5.88
2024-01-21T00:17:35.970Z,5.10
2024-01-21T00:20:03.407Z,4.90
2024-01-21T00:22:30.639Z,5.13
2024-01-21T00:24:57.958Z,4.55
2024-01-21T00:27:25.392Z,5.05
2024-01-21T00:29:52.783Z,5.60
2024-01-21T00:32:20.146Z,4.95
2024-01-21T00:34:47.491Z,4.93
2024-01-21T00:37:14.814Z,5.57
2024-01-21T00:39:42.042Z,6.07
2024-01-21T00:42:09.472Z,6.35
2024-01-21T00:44:38.497Z,6.18
2024-01-21T00:47:06.039Z,6.53
2024-01-21T00:49:34.639Z,7.05
2024-01-21T00:52:02.251Z,6.35
2024-01-21T00:54:29.737Z,6.25
2024-01-21T00:56:56.919Z,5.50
2024-01-21T00:59:24.261Z,5.90
2024-01-21T01:01:51.521Z,6.57
2024-01-21T01:04:19.042Z,6.32
2024-01-21T01:06:46.466Z,5.43
2024-01-21T01:09:14.347Z,6.03
2024-01-21T01:11:41.548Z,5.97
2024-01-21T01:14:08.916Z,6.20
2024-01-21T01:16:42.390Z,5.25
2024-01-21T01:21:37.234Z,5.65
2024-01-21T01:24:05.100Z,5.80
2024-01-21T01:26:32.366Z,5.53
2024-01-21T01:28:59.849Z,4.97
2024-01-21T01:31:27.209Z,4.72
2024-01-21T01:33:54.662Z,5.93
2024-01-21T01:36:22.311Z,5.60
2024-01-21T01:38:49.664Z,6.65
2024-01-21T01:41:19.580Z,5.32
2024-01-21T01:43:46.885Z,7.03
2024-01-21T01:46:15.008Z,6.28
2024-01-21T01:48:42.987Z,6.55
2024-01-21T01:51:10.968Z,6.20
2024-01-21T01:53:39.125Z,6.45
2024-01-21T01:56:07.462Z,5.72
2024-01-21T01:58:36.662Z,5.78
2024-01-21T02:01:04.005Z,5.78
2024-01-21T02:03:32.031Z,5.78
2024-01-21T02:05:59.361Z,6.18
2024-01-21T02:08:26.693Z,5.68
2024-01-21T02:10:54.015Z,5.68
2024-01-21T02:13:21.655Z,6.00
2024-01-21T02:15:48.950Z,5.30
2024-01-21T02:18:16.625Z,5.53
2024-01-21T02:20:43.853Z,5.20
2024-01-21T02:23:12.123Z,4.30
2024-01-21T02:25:39.394Z,4.55
2024-01-21T02:28:06.912Z,5.60
2024-01-21T02:30:38.103Z,5.13
2024-01-21T02:33:05.908Z,4.65
2024-01-21T02:35:34.320Z,4.32
2024-01-21T02:38:01.692Z,3.88
2024-01-21T02:40:29.122Z,4.47
2024-01-21T02:42:56.529Z,3.35
2024-01-21T02:45:23.972Z,4.45
2024-01-21T02:47:51.277Z,4.07
2024-01-21T02:50:18.628Z,4.88
2024-01-21T02:52:45.930Z,3.80
2024-01-21T02:55:13.274Z,3.72
2024-01-21T02:57:40.552Z,4.28
2024-01-21T03:00:09.152Z,4.45
2024-01-21T03:02:36.897Z,3.63
2024-01-21T03:05:04.273Z,4.05
2024-01-21T03:07:31.751Z,3.90
2024-01-21T03:09:59.148Z,4.13
2024-01-21T03:12:26.569Z,4.55
2024-01-21T03:14:53.872Z,4.13
2024-01-21T03:17:21.143Z,6.45
2024-01-21T03:19:48.434Z,6.45
2024-01-21T03:22:15.756Z,6.00
2024-01-21T03:24:43.230Z,7.22
2024-01-21T03:27:10.719Z,6.00
2024-01-21T03:29:38.013Z,7.10
2024-01-21T03:32:05.704Z,7.28
2024-01-21T03:34:33.342Z,6.50
2024-01-21T03:37:00.708Z,6.57
2024-01-21T03:39:28.060Z,6.82
2024-01-21T03:41:55.458Z,7.22
2024-01-21T03:44:22.691Z,7.53
2024-01-21T03:46:49.979Z,8.45
2024-01-21T03:49:17.224Z,7.35
2024-01-21T03:51:44.606Z,7.22
2024-01-21T03:54:11.893Z,7.00
2024-01-21T03:56:39.196Z,8.05
2024-01-21T03:59:06.404Z,6.50
2024-01-21T04:01:33.845Z,6.93
2024-01-21T04:04:01.240Z,6.72
2024-01-21T04:06:28.593Z,5.88
2024-01-21T04:08:55.907Z,5.50
2024-01-21T04:11:23.165Z,5.88
2024-01-21T04:13:50.919Z,5.30
2024-01-21T04:16:18.138Z,5.32
2024-01-21T04:18:45.534Z,4.68
2024-01-21T04:21:13.291Z,4.18
2024-01-21T04:23:40.774Z,4.10
2024-01-21T04:26:08.527Z,4.70
2024-01-21T04:28:38.332Z,4.35
2024-01-21T04:31:05.671Z,4.30
2024-01-21T04:33:33.189Z,4.93
2024-01-21T04:36:00.585Z,4.50
2024-01-21T04:38:27.819Z,3.53
2024-01-21T04:40:55.271Z,3.95
2024-01-21T04:43:22.600Z,4.10
2024-01-21T04:45:50.044Z,4.03
2024-01-21T04:48:17.382Z,4.53
2024-01-21T04:50:45.231Z,4.68
2024-01-21T04:53:12.559Z,4.60
2024-01-21T04:55:39.877Z,4.95
2024-01-21T04:58:07.134Z,4.57
2024-01-21T05:00:34.537Z,4.43
2024-01-21T05:03:01.772Z,4.35
2024-01-21T05:05:29.055Z,4.65
2024-01-21T05:07:56.233Z,4.40
2024-01-21T05:10:24.118Z,4.28
2024-01-21T05:12:51.628Z,4.57
2024-01-21T05:15:19.118Z,4.18
2024-01-21T05:17:46.633Z,4.57
2024-01-21T05:20:14.004Z,4.35
2024-01-21T05:22:41.297Z,4.43
2024-01-21T05:25:08.650Z,3.83
2024-01-21T05:27:36.180Z,4.20
2024-01-21T05:30:05.034Z,5.63
2024-01-21T05:32:32.772Z,3.60
2024-01-21T05:35:00.392Z,3.30
2024-01-21T05:37:27.647Z,3.20
2024-01-21T05:39:55.041Z,3.15
2024-01-21T05:42:22.304Z,2.67
2024-01-21T05:44:49.711Z,3.00
2024-01-21T05:47:16.886Z,3.22
2024-01-21T05:49:44.604Z,2.88
2024-01-21T05:52:12.305Z,2.95
2024-01-21T05:54:40.471Z,2.88
2024-01-21T05:57:07.905Z,3.17
2024-01-21T05:59:35.120Z,3.30
2024-01-21T06:02:02.634Z,3.20
2024-01-21T06:04:29.913Z,3.95
2024-01-21T06:06:57.441Z,2.90
2024-01-21T06:09:25.101Z,2.58
2024-01-21T06:11:52.515Z,2.88
2024-01-21T06:14:19.752Z,2.72
2024-01-21T06:16:47.063Z,2.83
2024-01-21T06:19:14.518Z,3.33
2024-01-21T06:21:45.458Z,3.05
2024-01-21T06:24:15.919Z,2.90
2024-01-21T06:26:43.410Z,2.65
2024-01-21T06:29:10.756Z,2.92
2024-01-21T06:31:38.135Z,3.03
2024-01-21T06:34:05.904Z,3.83
2024-01-21T06:36:33.278Z,3.67
2024-01-21T06:39:00.767Z,4.10
2024-01-21T06:41:28.054Z,3.72
2024-01-21T06:44:07.893Z,4.20
2024-01-21T06:46:35.553Z,4.13
2024-01-21T06:49:03.040Z,4.28
2024-01-21T06:51:35.847Z,3.50
2024-01-21T06:54:04.668Z,3.85
2024-01-21T06:56:32.104Z,3.55
2024-01-21T06:58:59.564Z,3.88
2024-01-21T07:01:26.940Z,3.50
2024-01-21T07:03:54.498Z,4.07
2024-01-21T07:06:21.945Z,3.70
2024-01-21T07:08:49.439Z,4.35
2024-01-21T07:11:16.667Z,4.07
2024-01-21T07:13:44.067Z,3.53
2024-01-21T07:16:11.310Z,3.20
2024-01-21T07:18:38.663Z,3.35
2024-01-21T07:21:05.886Z,2.60
2024-01-21T07:23:33.202Z,3.30
2024-01-21T07:26:01.205Z,3.40
2024-01-21T07:28:29.183Z,3.00
2024-01-21T07:30:56.658Z,3.13
2024-01-21T07:33:24.281Z,3.72
2024-01-21T07:35:51.672Z,3.30
2024-01-21T07:38:19.149Z,4.80
2024-01-21T07:40:46.773Z,3.67
2024-01-21T07:43:14.327Z,3.22
2024-01-21T07:45:41.833Z,3.58
2024-01-21T07:48:09.899Z,3.20
2024-01-21T07:50:37.353Z,3.20
2024-01-21T07:53:05.020Z,2.85
2024-01-21T07:55:32.405Z,3.78
2024-01-21T07:57:59.793Z,3.33
2024-01-21T08:00:27.218Z,3.40
2024-01-21T08:02:54.583Z,3.25
2024-01-21T08:05:22.535Z,2.90
2024-01-21T08:07:49.874Z,3.30
2024-01-21T08:10:17.157Z,3.10
2024-01-21T08:12:44.695Z,2.97
2024-01-21T08:15:11.995Z,2.40
2024-01-21T08:17:39.450Z,2.58
2024-01-21T08:20:07.724Z,2.83
2024-01-21T08:23:33.096Z,2.70
2024-01-21T08:26:00.394Z,2.40
2024-01-21T08:28:27.647Z,2.35
2024-01-21T08:30:55.189Z,2.60
2024-01-21T08:33:22.711Z,2.78
2024-01-21T08:35:49.954Z,2.50
2024-01-21T08:38:17.232Z,2.78
2024-01-21T08:40:44.387Z,2.33
2024-01-21T08:43:11.668Z,2.60
2024-01-21T08:45:39.100Z,2.50
2024-01-21T08:48:07.012Z,2.33
2024-01-21T08:50:34.288Z,2.90
2024-01-21T08:53:01.461Z,2.28
2024-01-21T08:55:28.697Z,2.80
2024-01-21T08:57:55.935Z,2.25
2024-01-21T09:00:23.537Z,2.15
2024-01-21T09:02:51.235Z,2.53
2024-01-21T09:05:18.602Z,2.20
2024-01-21T09:07:45.832Z,1.95
2024-01-21T09:10:14.257Z,2.78
2024-01-21T09:12:41.630Z,2.33
2024-01-21T09:15:10.203Z,2.05
2024-01-21T09:17:37.466Z,2.30
2024-01-21T09:20:05.714Z,2.45
2024-01-21T09:22:33.195Z,2.50
2024-01-21T09:25:01.262Z,2.28
2024-01-21T09:27:29.907Z,2.08
2024-01-21T09:29:57.102Z,2.10
2024-01-21T09:32:25.535Z,1.92
2024-01-21T09:34:52.818Z,2.15
2024-01-21T09:37:23.603Z,2.42
2024-01-21T09:39:52.086Z,2.33
2024-01-21T09:42:20.148Z,1.80
2024-01-21T09:44:48.113Z,1.95
2024-01-21T09:47:16.450Z,2.10
2024-01-21T09:49:45.011Z,2.22
2024-01-21T09:52:13.864Z,2.15
2024-01-21T09:54:41.325Z,1.88
2024-01-21T09:57:11.344Z,1.95
2024-01-21T09:59:38.755Z,1.67
2024-01-21T10:02:10.347Z,2.40
2024-01-21T10:04:37.985Z,1.90
2024-01-21T10:07:05.460Z,2.33
2024-01-21T10:09:34.353Z,2.22
2024-01-21T10:12:03.435Z,2.50
2024-01-21T10:14:33.035Z,2.10
2024-01-21T10:17:02.011Z,1.92
2024-01-21T10:19:30.635Z,1.98
2024-01-21T10:22:17.668Z,2.38
2024-01-21T10:24:47.620Z,2.13
2024-01-21T10:27:17.165Z,2.25
2024-01-21T10:29:47.933Z,2.33
2024-01-21T10:32:16.991Z,1.83
2024-01-21T10:34:51.875Z,2.17
2024-01-21T10:37:19.552Z,2.35
2024-01-21T10:39:48.856Z,2.10
2024-01-21T10:42:17.131Z,2.05
2024-01-21T10:44:45.436Z,2.30
2024-01-21T10:47:14.267Z,2.80
2024-01-21T10:49:42.973Z,1.85
2024-01-21T10:52:11.732Z,2.25
2024-01-21T10:54:39.689Z,2.08
2024-01-21T10:57:08.052Z,1.85
2024-01-21T10:59:40.430Z,2.10
2024-01-21T11:02:12.017Z,1.90
2024-01-21T11:04:39.860Z,2.10
2024-01-21T11:07:07.911Z,1.92
2024-01-21T11:09:38.451Z,1.90
2024-01-21T11:12:06.511Z,2.20
2024-01-21T11:14:42.257Z,1.67
2024-01-21T11:17:16.741Z,1.88
2024-01-21T11:19:56.488Z,2.10
2024-01-21T11:22:27.261Z,1.63
2024-01-21T11:24:56.768Z,1.25
2024-01-21T11:27:26.489Z,2.08
2024-01-21T11:29:58.494Z,2.10
2024-01-21T11:32:30.667Z,1.85
2024-01-21T11:35:15.354Z,2.40
2024-01-21T11:37:46.557Z,1.95
2024-01-21T11:40:14.135Z,2.15
2024-01-21T11:42:43.052Z,1.55
2024-01-21T11:45:11.306Z,1.85
2024-01-21T11:47:39.376Z,1.60
2024-01-21T11:50:07.185Z,2.05
2024-01-21T11:52:38.029Z,2.00
2024-01-21T11:55:06.630Z,2.20
2024-01-21T11:57:34.292Z,2.05
2024-01-21T12:00:01.870Z,1.77
2024-01-21T12:02:39.876Z,1.80
2024-01-21T12:05:07.614Z,1.73
2024-01-21T12:07:35.218Z,2.10
2024-01-21T12:10:03.132Z,2.13
2024-01-21T12:12:31.165Z,1.52
2024-01-21T12:15:03.103Z,2.10
2024-01-21T12:17:30.998Z,1.60
2024-01-21T12:19:59.093Z,6.20
2024-01-21T12:22:40.974Z,1.80
2024-01-21T12:25:09.925Z,1.73
2024-01-21T12:27:37.836Z,2.00
2024-01-21T12:30:12.969Z,1.45
2024-01-21T12:32:53.009Z,1.65
2024-01-21T12:35:24.135Z,2.20
2024-01-21T12:37:51.891Z,2.00
2024-01-21T12:40:19.689Z,1.77
2024-01-21T12:42:47.838Z,1.58
2024-01-21T12:45:15.394Z,1.45
2024-01-21T12:47:43.028Z,1.58
2024-01-21T12:50:11.126Z,1.65
2024-01-21T12:52:39.010Z,1.30
2024-01-21T12:55:08.162Z,1.48
2024-01-21T12:57:35.571Z,1.50
2024-01-21T13:00:04.982Z,1.40
2024-01-21T13:02:32.391Z,1.50
2024-01-21T13:04:59.691Z,1.60
2024-01-21T13:07:29.200Z,1.52
2024-01-21T13:09:57.509Z,1.45
2024-01-21T13:12:25.030Z,1.70
2024-01-21T13:14:52.351Z,1.60
2024-01-21T13:17:19.831Z,1.70
2024-01-21T13:19:47.394Z,1.42
2024-01-21T13:22:14.731Z,1.70
2024-01-21T13:24:42.096Z,1.80
2024-01-21T13:27:12.913Z,1.60
2024-01-21T13:29:58.908Z,1.70
2024-01-21T13:32:26.150Z,1.35
2024-01-21T13:34:53.860Z,1.42
2024-01-21T13:37:26.988Z,1.67
2024-01-21T13:39:54.919Z,1.90
2024-01-21T13:42:22.276Z,1.90
2024-01-21T13:44:49.685Z,1.90
2024-01-21T13:47:17.286Z,1.65
2024-01-21T13:49:44.908Z,1.70
2024-01-21T13:52:16.227Z,1.85
2024-01-21T13:54:44.245Z,1.70
2024-01-21T13:57:11.756Z,1.95
2024-01-21T13:59:39.150Z,2.20
2024-01-21T14:02:13.740Z,1.67
2024-01-21T14:04:44.236Z,2.10
2024-01-21T14:07:11.738Z,1.58
2024-01-21T14:09:40.099Z,1.70
2024-01-21T14:12:08.342Z,2.13
2024-01-21T14:14:36.821Z,2.17
2024-01-21T14:17:04.669Z,2.45
2024-01-21T14:19:32.095Z,2.45
2024-01-21T14:22:00.831Z,2.78
2024-01-21T14:24:29.050Z,1.88
2024-01-21T14:26:56.862Z,1.98
2024-01-21T14:29:46.691Z,2.03
2024-01-21T14:32:14.092Z,2.22
2024-01-21T14:34:41.623Z,2.10
2024-01-21T14:37:09.005Z,1.85
2024-01-21T14:39:37.441Z,2.00
2024-01-21T14:42:05.440Z,2.08
2024-01-21T14:44:33.720Z,1.90
2024-01-21T14:47:01.897Z,2.45
2024-01-21T14:49:31.609Z,1.88
2024-01-21T14:52:03.597Z,1.98
2024-01-21T14:54:32.314Z,1.92
2024-01-21T14:57:00.263Z,2.00
2024-01-21T14:59:27.955Z,2.60
2024-01-21T15:01:55.454Z,2.20
2024-01-21T15:04:22.808Z,1.98
2024-01-21T15:06:50.176Z,2.00
2024-01-21T15:09:18.005Z,1.92
2024-01-21T15:11:45.407Z,2.25
2024-01-21T15:14:23.200Z,2.40
2024-01-21T15:16:50.508Z,2.80
2024-01-21T15:19:17.932Z,2.08
2024-01-21T15:21:47.482Z,2.28
2024-01-21T15:24:14.840Z,2.10
2024-01-21T15:26:42.118Z,2.00
2024-01-21T15:29:09.608Z,1.98
2024-01-21T15:31:37.010Z,2.22
2024-01-21T15:34:07.161Z,1.90
2024-01-21T15:36:34.733Z,2.30
2024-01-21T15:39:01.929Z,2.80
2024-01-21T15:41:29.212Z,2.35
2024-01-21T15:43:56.613Z,2.42
2024-01-21T15:46:23.822Z,2.75
2024-01-21T15:48:51.076Z,2.50
2024-01-21T15:51:20.497Z,2.80
2024-01-21T15:53:50.350Z,2.70
2024-01-21T15:56:19.509Z,3.58
2024-01-21T15:58:46.889Z,3.22
2024-01-21T16:01:14.174Z,3.13
2024-01-21T16:03:42.345Z,2.85
2024-01-21T16:06:09.605Z,3.22
2024-01-21T16:08:39.935Z,2.38
2024-01-21T16:11:07.452Z,2.40
2024-01-21T16:13:37.163Z,2.80
2024-01-21T16:18:34.206Z,2.70
2024-01-21T16:21:02.244Z,2.85
2024-01-21T16:23:30.515Z,6.97
2024-01-21T16:25:57.922Z,3.33
2024-01-21T16:28:25.382Z,2.72
2024-01-21T16:30:53.167Z,2.72
2024-01-21T16:33:24.144Z,3.55
2024-01-21T16:35:52.303Z,2.92
2024-01-21T16:38:19.785Z,4.00
2024-01-21T16:40:48.352Z,3.70
2024-01-21T16:43:15.642Z,3.55
2024-01-21T16:45:43.028Z,7.45
2024-01-21T16:48:10.327Z,26.33
2024-01-21T16:50:37.620Z,20.58
2024-01-21T16:53:14.338Z,44.30
2024-01-21T16:55:44.043Z,35.50
2024-01-21T16:58:11.391Z,8.00
2024-01-21T17:00:45.043Z,5.50
2024-01-21T17:03:15.693Z,4.00
2024-01-21T17:05:43.070Z,3.78
2024-01-21T17:08:10.578Z,3.72
2024-01-21T17:11:10.799Z,3.45
2024-01-21T17:13:38.655Z,3.35
2024-01-21T17:16:06.072Z,3.40
2024-01-21T17:18:49.345Z,3.95
2024-01-21T17:21:16.830Z,2.95
2024-01-21T17:23:44.266Z,2.58
2024-01-21T17:26:13.538Z,2.55
2024-01-21T17:28:40.920Z,2.25
2024-01-21T17:31:08.384Z,2.45
2024-01-21T17:33:35.820Z,2.60
2024-01-21T17:36:03.506Z,2.33
2024-01-21T17:38:30.853Z,2.70
2024-01-21T17:40:58.917Z,2.50
2024-01-21T17:43:26.217Z,2.83
2024-01-21T17:45:53.614Z,2.55
2024-01-21T17:48:21.316Z,2.20
2024-01-21T17:50:49.857Z,2.50
2024-01-21T17:53:17.974Z,2.70
2024-01-21T17:55:46.418Z,2.40
2024-01-21T17:58:13.957Z,2.45
2024-01-21T18:00:41.547Z,2.50
2024-01-21T18:03:08.870Z,2.25
2024-01-21T18:05:39.434Z,2.65
2024-01-21T18:08:10.786Z,2.30
2024-01-21T18:10:45.452Z,2.38
2024-01-21T18:13:12.944Z,3.03
2024-01-21T18:15:42.809Z,2.33
2024-01-21T18:18:10.159Z,2.75
2024-01-21T18:20:38.531Z,2.60
2024-01-21T18:23:06.108Z,2.22
2024-01-21T18:25:34.585Z,2.50
2024-01-21T18:28:02.159Z,3.85
2024-01-21T18:30:30.901Z,4.28
2024-01-21T18:32:58.282Z,4.95
2024-01-21T18:35:25.762Z,4.93
2024-01-21T18:37:53.113Z,5.78
2024-01-21T18:40:23.511Z,5.43
2024-01-21T18:42:51.950Z,4.75
2024-01-21T18:45:19.444Z,4.68
2024-01-21T18:47:49.138Z,5.63
2024-01-21T18:50:18.012Z,5.57
2024-01-21T18:52:45.598Z,5.65
2024-01-21T18:55:14.913Z,6.07
2024-01-21T18:57:42.393Z,5.80
2024-01-21T19:00:10.202Z,5.88
2024-01-21T19:02:37.586Z,6.00
2024-01-21T19:05:05.324Z,6.40
2024-01-21T19:07:36.061Z,5.95
2024-01-21T19:10:10.107Z,5.25
2024-01-21T19:12:37.474Z,4.63
2024-01-21T19:15:05.443Z,5.18
2024-01-21T19:17:32.869Z,4.90
2024-01-21T19:20:01.592Z,4.70
2024-01-21T19:22:29.034Z,3.35
2024-01-21T19:24:56.373Z,3.47
2024-01-21T19:27:24.044Z,4.28
2024-01-21T19:29:51.502Z,4.15
2024-01-21T19:32:19.126Z,4.82
2024-01-21T19:34:46.672Z,5.70
2024-01-21T19:37:14.127Z,7.63
2024-01-21T19:39:41.447Z,7.28
2024-01-21T19:42:08.930Z,8.07
2024-01-21T19:44:43.428Z,6.30
2024-01-21T19:47:13.114Z,6.32
2024-01-21T19:49:41.103Z,9.57
2024-01-21T19:52:08.671Z,7.85
2024-01-21T19:54:37.676Z,6.22
2024-01-21T19:57:05.646Z,6.20
2024-01-21T19:59:33.253Z,9.00
2024-01-21T20:02:00.485Z,5.55
2024-01-21T20:04:28.021Z,6.10
2024-01-21T20:06:55.448Z,7.03
2024-01-21T20:09:22.983Z,8.65
2024-01-21T20:11:50.475Z,10.75
2024-01-21T20:14:18.188Z,8.15
2024-01-21T20:16:45.544Z,7.63
2024-01-21T20:19:12.805Z,6.35
2024-01-21T20:21:40.199Z,6.90
2024-01-21T20:24:08.335Z,7.40
2024-01-21T20:26:35.963Z,8.88
2024-01-21T20:29:03.296Z,8.57
2024-01-21T20:31:30.582Z,8.93
2024-01-21T20:33:58.052Z,8.68
2024-01-21T20:36:25.495Z,9.00
2024-01-21T20:38:52.753Z,9.15
2024-01-21T20:41:20.339Z,8.60
2024-01-21T20:43:48.598Z,7.38
2024-01-21T20:46:16.149Z,6.55
2024-01-21T20:48:44.354Z,7.13
2024-01-21T20:51:12.750Z,7.20
2024-01-21T20:53:40.271Z,6.87
2024-01-21T20:56:08.092Z,6.57
2024-01-21T20:58:35.918Z,6.55
2024-01-21T21:01:10.189Z,6.25
2024-01-21T21:03:41.640Z,6.70
2024-01-21T21:06:09.449Z,6.45
2024-01-21T21:08:39.003Z,7.05
2024-01-21T21:11:06.312Z,7.28
2024-01-21T21:13:33.516Z,7.10
2024-01-21T21:16:00.863Z,7.25
2024-01-21T21:18:28.284Z,7.53
2024-01-21T21:20:56.057Z,7.82
2024-01-21T21:23:25.231Z,7.30
2024-01-21T21:25:53.210Z,7.55
2024-01-21T21:28:20.777Z,6.95
2024-01-21T21:30:49.446Z,8.75
2024-01-21T21:33:17.223Z,9.27
2024-01-21T21:35:45.873Z,9.43
2024-01-21T21:38:14.792Z,8.43
2024-01-21T21:40:42.741Z,7.15
2024-01-21T21:43:09.886Z,7.72
2024-01-21T21:45:37.350Z,8.27
2024-01-21T21:48:05.531Z,8.25
2024-01-21T21:50:33.013Z,8.65
2024-01-21T21:53:00.380Z,8.35
2024-01-21T21:55:30.002Z,10.20
2024-01-21T21:57:57.951Z,12.32
2024-01-21T22:00:26.665Z,12.63
2024-01-21T22:02:54.691Z,11.10
2024-01-21T22:05:22.442Z,9.80
2024-01-21T22:07:49.893Z,9.88
2024-01-21T22:10:17.491Z,9.43
2024-01-21T22:12:45.127Z,8.88
2024-01-21T22:15:13.611Z,7.95
2024-01-21T22:17:41.117Z,8.55
2024-01-21T22:20:09.093Z,7.22
2024-01-21T22:22:37.316Z,7.40
2024-01-21T22:25:05.581Z,6.68
2024-01-21T22:27:33.533Z,6.82
2024-01-21T22:30:02.259Z,5.72
2024-01-21T22:32:29.565Z,5.95
2024-01-21T22:34:56.930Z,5.65
2024-01-21T22:37:24.173Z,6.13
2024-01-21T22:39:51.467Z,6.20
2024-01-21T22:42:18.652Z,5.65
2024-01-21T22:44:46.350Z,6.32
2024-01-21T22:47:13.629Z,6.32
2024-01-21T22:49:41.108Z,5.65
2024-01-21T22:52:08.484Z,5.55
2024-01-21T22:54:35.703Z,5.30
2024-01-21T22:57:03.122Z,6.35
2024-01-21T22:59:30.554Z,7.07
2024-01-21T23:01:58.363Z,6.50
2024-01-21T23:04:26.952Z,6.22
2024-01-21T23:06:55.391Z,5.50
2024-01-21T23:09:23.367Z,5.43
2024-01-21T23:11:52.077Z,5.97
2024-01-21T23:14:19.547Z,5.28
2024-01-21T23:16:47.139Z,5.85
2024-01-21T23:19:14.374Z,5.55
2024-01-21T23:21:41.714Z,5.85
2024-01-21T23:24:09.415Z,6.00
2024-01-21T23:26:36.912Z,5.85
2024-01-21T23:29:04.892Z,5.85
2024-01-21T23:31:32.424Z,6.13
2024-01-21T23:33:59.722Z,6.22
2024-01-21T23:36:27.194Z,6.35
2024-01-21T23:38:55.555Z,5.45
2024-01-21T23:41:22.902Z,5.70
2024-01-21T23:43:51.021Z,6.43
2024-01-21T23:46:19.595Z,5.85
2024-01-21T23:48:47.140Z,5.75
2024-01-21T23:51:15.379Z,5.80
2024-01-21T23:53:42.905Z,5.90
2024-01-21T23:56:10.340Z,5.70
2024-01-21T23:58:37.533Z,6.13
